Time;durP1;ratioP1;P1;durP2;ratioP2;P2;SDS_P1;SDS_P2;PMS_P1;PMS_P2;Temp;Humidity;BMP_temperature;BMP_pressure;BME280_temperature;BME280_humidity;BME280_pressure;Samples;Min_cycle;Max_cycle;Signal;HPM_P1;HPM_P2
2023/03/08 00:03:26;;;;;;;;;19.75;16.50;;;;;9.30;61.21;99181.22;5055845;28;45638;-78
2023/03/08 00:05:52;;;;;;;;;20.25;18.50;;;;;9.27;60.77;99177.09;5055463;28;46203;-77
2023/03/08 00:08:18;;;;;;;;;15.50;13.50;;;;;9.27;60.94;99182.34;5037473;28;47976;-80
2023/03/08 00:10:43;;;;;;;;;19.00;16.00;;;;;9.33;61.55;99172.28;5055548;28;45502;-79
2023/03/08 00:13:10;;;;;;;;;15.25;14.00;;;;;9.32;61.63;99173.25;5055536;28;45573;-78
2023/03/08 00:18:57;;;;;;;;;15.75;15.75;;;;;9.28;62.14;99175.31;5055028;28;45849;-78
2023/03/08 00:21:22;;;;;;;;;21.25;17.00;;;;;9.12;61.71;99143.69;5055242;28;45631;-78
2023/03/08 00:23:52;;;;;;;;;14.50;13.50;;;;;9.25;62.13;99175.56;5054846;28;45627;-78
2023/03/08 00:26:23;;;;;;;;;22.50;15.75;;;;;9.22;62.02;99160.19;5037258;28;48177;-78
2023/03/08 00:28:59;;;;;;;;;23.25;17.50;;;;;8.97;62.01;99119.72;5054867;28;46332;-77
2023/03/08 00:31:49;;;;;;;;;15.50;14.75;;;;;8.58;62.28;99056.19;5055062;28;45614;-78
2023/03/08 00:34:17;;;;;;;;;17.75;16.00;;;;;8.59;62.20;99049.97;5074183;28;45706;-77
2023/03/08 00:36:44;;;;;;;;;20.00;17.00;;;;;8.79;62.45;99084.78;5075271;28;46543;-78
2023/03/08 00:39:13;;;;;;;;;17.75;16.00;;;;;9.18;62.43;99136.09;5075492;28;46161;-76
2023/03/08 00:41:41;;;;;;;;;18.25;16.25;;;;;8.74;62.50;99063.50;5057401;28;45735;-78
2023/03/08 00:44:12;;;;;;;;;21.00;15.25;;;;;8.84;62.66;99069.53;5075172;28;45659;-77
2023/03/08 00:46:38;;;;;;;;;23.00;17.50;;;;;8.95;62.61;99085.09;5074935;28;47539;-78
2023/03/08 00:49:12;;;;;;;;;18.25;14.25;;;;;9.15;62.88;99117.25;5075046;28;46055;-78
2023/03/08 00:51:37;;;;;;;;;15.00;14.25;;;;;9.14;62.82;99098.16;5075331;28;45542;-78
2023/03/08 00:54:05;;;;;;;;;19.75;15.00;;;;;9.13;63.06;99095.66;5075087;28;45648;-79
2023/03/08 00:56:30;;;;;;;;;17.00;15.25;;;;;9.11;62.66;99081.94;5074796;28;47431;-78
2023/03/08 00:58:56;;;;;;;;;21.00;14.00;;;;;9.09;63.28;99066.38;5075754;28;47140;-78
2023/03/08 01:01:21;;;;;;;;;19.00;14.00;;;;;9.00;63.24;99048.94;5080876;28;45881;-77
2023/03/08 01:03:46;;;;;;;;;20.75;15.75;;;;;9.00;63.23;99041.09;5066545;28;45517;-77
2023/03/08 01:06:14;;;;;;;;;19.00;16.00;;;;;9.08;63.38;99062.13;5085454;28;45558;-78
2023/03/08 01:08:41;;;;;;;;;19.75;16.25;;;;;9.02;63.55;99036.53;5087223;28;47035;-79
2023/03/08 01:11:17;;;;;;;;;16.00;14.75;;;;;9.05;63.72;99040.69;5081134;28;45618;-79
2023/03/08 01:13:42;;;;;;;;;18.00;16.25;;;;;9.03;63.72;99021.69;5076735;28;45698;-79
2023/03/08 01:19:32;;;;;;;;;19.00;15.25;;;;;8.99;63.55;99026.38;5076481;28;45915;-77
2023/03/08 01:21:58;;;;;;;;;19.00;14.25;;;;;8.97;64.05;99014.41;5057683;28;45819;-79
2023/03/08 01:24:23;;;;;;;;;20.75;16.75;;;;;8.77;63.78;98984.88;5073807;28;45913;-77
2023/03/08 01:26:48;;;;;;;;;20.25;16.50;;;;;8.96;64.14;98999.72;5074658;28;45876;-77
2023/03/08 01:29:14;;;;;;;;;20.00;17.50;;;;;8.90;64.21;98989.81;5075024;28;45650;-79
2023/03/08 01:35:03;;;;;;;;;17.75;15.75;;;;;8.65;64.30;98946.81;5064495;28;45792;-79
2023/03/08 01:37:30;;;;;;;;;15.50;13.25;;;;;8.86;64.34;98968.38;5054676;28;46328;-79
2023/03/08 01:39:55;;;;;;;;;20.75;19.00;;;;;8.81;63.98;98970.56;5056575;28;46403;-78
2023/03/08 01:42:20;;;;;;;;;18.00;16.00;;;;;8.73;64.47;98955.63;5052785;28;46121;-79
2023/03/08 01:45:00;;;;;;;;;18.50;15.75;;;;;8.82;64.64;98962.59;5053969;28;45779;-79
2023/03/08 01:47:28;;;;;;;;;19.00;17.25;;;;;8.75;64.42;98947.63;5053852;28;45662;-79
2023/03/08 01:49:58;;;;;;;;;16.50;14.00;;;;;8.68;64.58;98939.53;5052633;28;46202;-78
2023/03/08 01:52:36;;;;;;;;;18.00;13.25;;;;;8.80;64.43;98958.47;5054046;28;45897;-78
2023/03/08 01:55:06;;;;;;;;;19.00;15.75;;;;;8.75;64.86;98937.19;5036531;28;45699;-78
2023/03/08 01:57:35;;;;;;;;;20.50;18.00;;;;;8.80;64.90;98938.41;5053638;28;46837;-77
2023/03/08 02:00:30;;;;;;;;;17.50;13.50;;;;;8.78;64.93;98923.88;5053497;28;46652;-79
2023/03/08 02:03:11;;;;;;;;;16.25;15.00;;;;;8.74;64.91;98919.91;4971980;28;46228;-78
2023/03/08 02:05:40;;;;;;;;;17.75;15.50;;;;;8.70;65.14;98910.66;4972063;28;45716;-78
2023/03/08 02:08:06;;;;;;;;;18.00;14.25;;;;;8.66;65.16;98912.75;4972133;28;46504;-79
2023/03/08 02:10:31;;;;;;;;;15.50;14.00;;;;;8.73;65.13;98911.22;4971813;28;46089;-78
2023/03/08 02:12:57;;;;;;;;;15.25;12.25;;;;;8.72;65.02;98909.59;4971488;28;45671;-77
2023/03/08 02:15:30;;;;;;;;;15.50;13.50;;;;;8.73;65.20;98902.56;4972008;28;45837;-78
2023/03/08 02:18:06;;;;;;;;;19.25;15.75;;;;;8.73;65.25;98892.97;4972012;28;46854;-79
2023/03/08 02:20:49;;;;;;;;;15.75;15.00;;;;;8.73;65.54;98898.19;4973193;28;46268;-78
2023/03/08 02:23:25;;;;;;;;;26.25;17.75;;;;;8.34;65.77;98820.88;4971288;28;45778;-80
2023/03/08 02:26:02;;;;;;;;;16.25;12.00;;;;;8.46;65.29;98829.38;4971921;28;45571;-79
2023/03/08 02:34:42;;;;;;;;;17.50;15.00;;;;;8.70;66.13;98838.41;4898032;28;46034;-78
2023/03/08 02:37:08;;;;;;;;;20.25;15.50;;;;;8.68;66.23;98829.06;4894495;29;45548;-77
2023/03/08 02:39:55;;;;;;;;;19.75;15.00;;;;;8.69;66.29;98820.28;4928815;28;47660;-77
2023/03/08 02:42:55;;;;;;;;;16.00;13.00;;;;;8.48;66.43;98783.06;4952616;28;45590;-78
2023/03/08 02:51:27;;;;;;;;;17.75;14.25;;;;;8.52;66.51;98771.41;4956198;28;46256;-77
2023/03/08 02:53:58;;;;;;;;;19.00;13.50;;;;;8.41;66.33;98751.53;4939876;28;46051;-78
2023/03/08 02:56:43;;;;;;;;;13.50;12.50;;;;;8.63;66.94;98772.06;4956297;28;45899;-78
2023/03/08 02:59:21;;;;;;;;;;;;;;;;;;;;;
2023/03/08 03:02:00;;;;;;;;;18.00;11.00;;;;;8.63;66.82;98747.75;4953942;28;74681;-78
2023/03/08 03:04:38;;;;;;;;;15.75;14.00;;;;;8.42;66.58;98698.38;4951822;28;45716;-77
2023/03/08 03:07:07;;;;;;;;;10.75;9.00;;;;;8.45;66.75;98692.88;4955730;28;45654;-79
2023/03/08 03:09:41;;;;;;;;;13.50;13.25;;;;;8.35;66.90;98671.22;5049090;28;45838;-78
2023/03/08 03:12:06;;;;;;;;;13.00;12.00;;;;;8.59;66.95;98692.38;5055954;28;45648;-79
2023/03/08 03:14:32;;;;;;;;;18.00;14.00;;;;;8.48;66.65;98671.69;5037853;28;47319;-78
2023/03/08 03:16:57;;;;;;;;;14.00;12.25;;;;;8.40;67.16;98629.84;5056305;28;45571;-78
2023/03/08 03:19:26;;;;;;;;;15.75;12.00;;;;;8.53;67.24;98666.06;5055982;28;45502;-77
2023/03/08 03:21:56;;;;;;;;;17.75;14.00;;;;;8.52;67.21;98656.59;5056125;28;45732;-78
2023/03/08 03:24:22;;;;;;;;;10.50;7.00;;;;;8.53;67.22;98663.47;5055716;28;45993;-78
2023/03/08 03:26:53;;;;;;;;;14.75;14.00;;;;;8.55;67.18;98661.50;5056536;28;46195;-76
2023/03/08 03:29:21;;;;;;;;;14.00;11.50;;;;;8.55;67.45;98636.22;5056885;28;45539;-77
2023/03/08 03:31:52;;;;;;;;;15.75;12.25;;;;;8.55;67.56;98625.78;5038280;28;48111;-78
2023/03/08 03:34:18;;;;;;;;;12.50;11.25;;;;;8.48;67.42;98611.69;5056063;28;46205;-77
2023/03/08 03:36:43;;;;;;;;;6.75;6.25;;;;;8.51;67.61;98619.22;5056178;28;45615;-79
2023/03/08 03:39:11;;;;;;;;;16.50;10.50;;;;;8.45;67.91;98598.09;5056261;28;45600;-78
2023/03/08 03:41:42;;;;;;;;;14.00;11.75;;;;;8.26;67.56;98563.28;5056366;28;45476;-78
2023/03/08 03:44:07;;;;;;;;;12.75;11.00;;;;;8.45;68.12;98588.50;5055718;28;46073;-78
2023/03/08 03:46:35;;;;;;;;;13.00;11.00;;;;;8.38;68.16;98556.13;5056071;28;45629;-78
2023/03/08 03:49:03;;;;;;;;;14.00;10.00;;;;;8.48;68.13;98558.66;5056045;28;45658;-77
2023/03/08 03:51:37;;;;;;;;;11.00;10.50;;;;;8.06;68.47;98487.88;5056362;28;45661;-78
2023/03/08 03:54:03;;;;;;;;;18.00;11.00;;;;;8.45;68.32;98561.56;5053750;28;46278;-77
2023/03/08 03:56:28;;;;;;;;;12.25;11.75;;;;;8.42;68.62;98562.72;5055811;28;45607;-79
2023/03/08 03:58:57;;;;;;;;;13.75;11.50;;;;;8.34;68.53;98526.06;5055750;28;45644;-79
2023/03/08 04:07:31;;;;;;;;;8.50;8.00;;;;;8.38;68.87;98514.38;5055852;28;45628;-78
2023/03/08 04:09:57;;;;;;;;;11.00;9.50;;;;;8.36;68.85;98511.94;5055647;28;45923;-78
2023/03/08 04:12:22;;;;;;;;;11.00;7.00;;;;;8.38;68.74;98512.59;5055346;28;46441;-77
2023/03/08 04:14:48;;;;;;;;;11.50;10.00;;;;;8.39;69.21;98502.97;5070582;28;45956;-77
2023/03/08 04:17:13;;;;;;;;;9.75;9.00;;;;;8.36;69.06;98485.84;5055271;28;45521;-78
2023/03/08 04:19:38;;;;;;;;;10.75;9.00;;;;;8.37;69.42;98497.88;5055410;28;45618;-78
2023/03/08 04:22:04;;;;;;;;;14.00;10.00;;;;;8.35;69.31;98481.59;5070358;28;47651;-78
2023/03/08 04:24:29;;;;;;;;;9.00;9.00;;;;;8.33;69.07;98483.50;5054855;28;46521;-78
2023/03/08 04:26:55;;;;;;;;;11.00;10.00;;;;;8.22;69.36;98443.72;5056012;28;45726;-77
2023/03/08 04:29:20;;;;;;;;;8.00;7.50;;;;;8.30;69.54;98460.34;5056311;28;45635;-78
2023/03/08 04:31:45;;;;;;;;;7.75;6.00;;;;;8.25;69.94;98469.53;5054767;28;46779;-77
2023/03/08 04:37:32;;;;;;;;;6.00;5.00;;;;;8.30;69.72;98467.34;5067587;27;45708;-78
2023/03/08 04:39:58;;;;;;;;;3.50;3.50;;;;;8.29;69.77;98452.63;5059801;28;45771;-79
2023/03/08 04:42:23;;;;;;;;;6.00;5.00;;;;;8.23;69.82;98433.16;5058768;28;47365;-78
2023/03/08 04:44:49;;;;;;;;;6.00;5.25;;;;;8.30;69.96;98452.50;5056406;28;46562;-78
2023/03/08 04:47:14;;;;;;;;;6.50;4.50;;;;;8.27;70.09;98423.25;5037320;28;45550;-78
2023/03/08 04:49:40;;;;;;;;;11.00;6.75;;;;;8.32;70.26;98434.09;5055073;28;45506;-79
2023/03/08 04:52:05;;;;;;;;;6.50;5.00;;;;;8.33;70.11;98443.56;5054906;28;47595;-81
2023/03/08 04:54:30;;;;;;;;;6.75;5.25;;;;;8.30;70.59;98443.88;5054595;28;47518;-80
2023/03/08 04:56:56;;;;;;;;;6.00;5.50;;;;;8.33;70.64;98423.50;5036577;28;45716;-79
2023/03/08 04:59:21;;;;;;;;;4.00;4.00;;;;;8.32;70.35;98411.44;5055242;28;45746;-77
2023/03/08 05:01:46;;;;;;;;;6.00;3.00;;;;;8.30;70.54;98392.50;5054587;28;46394;-78
2023/03/08 05:07:33;;;;;;;;;3.00;3.00;;;;;8.32;70.78;98405.38;5054192;28;45601;-77
2023/03/08 05:09:59;;;;;;;;;6.25;5.50;;;;;8.32;70.93;98413.22;5054944;28;45609;-78
2023/03/08 05:12:24;;;;;;;;;6.00;5.50;;;;;8.25;70.79;98393.91;5054501;28;45571;-79
2023/03/08 05:14:49;;;;;;;;;3.00;3.00;;;;;8.34;70.95;98404.28;5054574;28;46029;-78
2023/03/08 05:17:15;;;;;;;;;6.00;5.00;;;;;8.35;70.86;98384.22;5056403;28;45665;-78
2023/03/08 05:23:03;;;;;;;;;5.00;3.00;;;;;8.39;70.98;98393.41;5055720;28;45631;-78
2023/03/08 05:25:30;;;;;;;;;3.50;3.50;;;;;8.36;70.96;98371.06;5055320;28;45985;-78
2023/03/08 05:27:55;;;;;;;;;7.00;5.00;;;;;8.41;71.31;98384.47;5054801;28;45864;-79
2023/03/08 05:30:21;;;;;;;;;3.00;3.00;;;;;8.34;70.85;98370.38;5054677;28;45971;-78
2023/03/08 05:32:46;;;;;;;;;5.00;3.00;;;;;8.43;71.20;98372.06;5054275;28;45457;-78
2023/03/08 05:35:11;;;;;;;;;5.00;2.25;;;;;8.38;71.35;98347.41;5054162;28;45736;-79
2023/03/08 05:37:37;;;;;;;;;5.75;4.00;;;;;8.47;71.23;98366.56;5053872;28;45763;-78
2023/03/08 05:40:05;;;;;;;;;5.50;3.00;;;;;8.48;71.51;98374.22;5054677;28;45758;-79
2023/03/08 05:42:31;;;;;;;;;3.50;3.50;;;;;8.51;71.57;98378.34;5054237;28;46344;-78
2023/03/08 05:44:57;;;;;;;;;3.00;3.00;;;;;8.42;71.75;98361.81;5053593;28;46803;-78
2023/03/08 05:47:22;;;;;;;;;3.00;3.00;;;;;8.52;71.63;98361.72;5054059;28;45720;-78
2023/03/08 05:53:10;;;;;;;;;6.00;5.00;;;;;8.40;72.39;98341.06;5054032;28;45723;-77
2023/03/08 05:55:35;;;;;;;;;3.00;3.00;;;;;8.51;72.45;98362.69;5054010;28;45621;-78
2023/03/08 05:58:00;;;;;;;;;2.75;1.75;;;;;8.57;72.35;98368.13;5054007;28;45727;-78
2023/03/08 06:00:26;;;;;;;;;2.75;2.75;;;;;8.61;72.00;98363.41;5054109;28;45562;-79
2023/03/08 06:02:51;;;;;;;;;5.00;2.25;;;;;8.58;72.12;98361.94;5053758;28;46238;-78
2023/03/08 06:08:38;;;;;;;;;3.00;2.00;;;;;8.70;72.57;98352.03;5054392;28;45912;-76
2023/03/08 06:11:04;;;;;;;;;2.00;2.00;;;;;8.73;72.64;98367.41;5054529;28;45534;-78
2023/03/08 06:13:29;;;;;;;;;3.00;3.00;;;;;8.72;72.66;98361.38;5054286;28;46673;-78
2023/03/08 06:15:56;;;;;;;;;3.50;3.00;;;;;8.79;72.50;98351.97;5054269;28;45688;-78
2023/03/08 06:18:22;;;;;;;;;2.25;2.25;;;;;8.83;72.88;98386.41;5053483;28;45685;-79
2023/03/08 06:20:59;;;;;;;;;6.50;2.50;;;;;8.86;73.30;98373.03;5054142;28;45591;-76
2023/03/08 06:23:25;;;;;;;;;2.25;2.00;;;;;8.79;73.43;98349.34;5053864;28;46365;-79
2023/03/08 06:25:50;;;;;;;;;1.00;0.75;;;;;8.86;73.63;98375.66;5054547;28;46348;-78
2023/03/08 06:28:16;;;;;;;;;2.00;1.00;;;;;8.89;73.79;98395.41;5054029;28;45647;-78
2023/03/08 06:30:41;;;;;;;;;1.50;1.50;;;;;8.88;74.07;98372.88;5054059;28;45489;-78
2023/03/08 06:39:58;;;;;;;;;2.50;2.00;;;;;9.00;75.27;98388.16;5054110;28;45798;-78
2023/03/08 06:42:23;;;;;;;;;1.75;1.75;;;;;9.10;74.81;98385.44;5056073;28;45568;-77
2023/03/08 06:44:49;;;;;;;;;2.00;1.00;;;;;9.15;74.87;98386.63;5054667;28;46690;-77
2023/03/08 06:47:14;;;;;;;;;1.50;1.50;;;;;9.15;75.05;98380.56;5054545;28;46739;-75
2023/03/08 06:53:01;;;;;;;;;1.00;1.00;;;;;9.36;75.71;98391.47;5053620;28;45569;-76
2023/03/08 06:55:26;;;;;;;;;2.00;2.00;;;;;9.20;75.87;98354.78;5053467;28;46499;-75
2023/03/08 06:57:54;;;;;;;;;1.00;1.00;;;;;9.49;76.04;98388.44;5052971;28;45602;-76
2023/03/08 07:00:20;;;;;;;;;1.75;1.00;;;;;9.57;75.83;98381.41;5053218;28;45760;-76
2023/03/08 07:02:47;;;;;;;;;0.75;0.50;;;;;9.66;76.14;98377.06;5053560;28;45615;-76
2023/03/08 07:08:36;;;;;;;;;1.75;1.00;;;;;9.85;76.11;98389.03;5053022;28;46301;-75
2023/03/08 07:11:01;;;;;;;;;1.75;0.50;;;;;9.93;76.17;98389.88;5053632;28;45686;-77
2023/03/08 07:13:28;;;;;;;;;0.25;0.25;;;;;9.98;76.41;98386.78;5053386;28;45616;-75
2023/03/08 07:15:54;;;;;;;;;0.50;0.50;;;;;10.06;76.17;98389.41;5053161;28;46983;-76
2023/03/08 07:18:19;;;;;;;;;1.00;1.00;;;;;10.15;76.03;98385.03;5053864;28;45576;-78
2023/03/08 07:24:06;;;;;;;;;0.00;0.00;;;;;10.31;76.26;98370.19;5053211;28;45688;-74
2023/03/08 07:26:32;;;;;;;;;0.00;0.00;;;;;10.44;75.89;98394.09;5053721;28;46459;-75
2023/03/08 07:28:57;;;;;;;;;0.00;0.00;;;;;10.46;76.07;98365.97;5036459;28;46030;-75
2023/03/08 07:31:22;;;;;;;;;0.00;0.00;;;;;10.58;76.22;98383.97;5056724;28;45570;-76
2023/03/08 07:33:48;;;;;;;;;1.00;1.00;;;;;10.64;76.39;98388.50;5056827;28;45675;-76
2023/03/08 07:39:35;;;;;;;;;0.25;0.00;;;;;10.72;76.33;98385.91;5060536;27;45748;-76
2023/03/08 07:42:00;;;;;;;;;2.00;1.00;;;;;10.82;76.37;98387.38;5054890;28;45807;-76
2023/03/08 07:44:25;;;;;;;;;1.50;1.00;;;;;10.88;76.30;98384.09;5056033;28;45582;-76
2023/03/08 07:46:51;;;;;;;;;0.00;0.00;;;;;10.80;75.96;98376.22;5055837;28;45589;-74
2023/03/08 07:49:16;;;;;;;;;1.00;0.00;;;;;11.03;76.26;98386.84;5055829;28;45709;-74
2023/03/08 07:55:03;;;;;;;;;0.75;0.75;;;;;11.20;76.10;98390.25;5055396;28;45625;-75
2023/03/08 07:57:29;;;;;;;;;0.00;0.00;;;;;11.13;76.02;98377.00;5055641;28;46501;-76
2023/03/08 07:59:54;;;;;;;;;0.25;0.25;;;;;11.33;75.97;98390.56;5055909;28;46146;-75
2023/03/08 08:02:19;;;;;;;;;1.00;1.00;;;;;11.40;75.98;98406.41;5055785;28;45646;-75
2023/03/08 08:04:45;;;;;;;;;1.00;0.00;;;;;11.46;75.85;98408.38;5055548;28;45761;-74
2023/03/08 08:07:13;;;;;;;;;1.00;1.00;;;;;11.56;75.77;98409.00;5055348;28;46356;-75
2023/03/08 08:09:38;;;;;;;;;0.00;0.00;;;;;11.64;75.40;98420.28;5055900;28;47164;-74
2023/03/08 08:12:05;;;;;;;;;0.50;0.25;;;;;11.69;75.60;98409.28;5055746;28;45464;-74
2023/03/08 08:14:30;;;;;;;;;0.25;0.00;;;;;11.79;75.51;98436.16;5055266;28;45497;-76
2023/03/08 08:16:56;;;;;;;;;0.00;0.00;;;;;11.78;75.20;98418.78;5055322;28;45682;-73
2023/03/08 08:19:22;;;;;;;;;0.50;0.00;;;;;11.91;75.01;98418.25;5055369;28;45922;-77
2023/03/08 08:25:10;;;;;;;;;0.75;0.50;;;;;12.13;74.79;98434.03;5055372;28;45568;-77
2023/03/08 08:27:36;;;;;;;;;1.00;1.00;;;;;12.20;74.88;98445.47;5055039;28;47553;-75
2023/03/08 08:30:03;;;;;;;;;0.00;0.00;;;;;12.25;74.71;98420.53;5055754;28;45706;-76
2023/03/08 08:32:28;;;;;;;;;0.75;0.00;;;;;12.28;74.80;98407.84;5055590;28;45629;-75
2023/03/08 08:34:53;;;;;;;;;2.00;0.75;;;;;12.35;74.58;98418.50;5055595;28;45594;-77
2023/03/08 08:40:40;;;;;;;;;2.00;1.00;;;;;12.50;74.13;98438.56;5062652;28;45947;-77
2023/03/08 08:43:06;;;;;;;;;0.50;0.00;;;;;12.60;74.07;98439.16;5054969;28;45560;-76
2023/03/08 08:45:31;;;;;;;;;1.00;1.00;;;;;12.65;74.03;98428.13;5055133;28;45896;-75
2023/03/08 08:47:56;;;;;;;;;1.25;0.00;;;;;12.71;74.39;98445.00;5055177;28;46425;-75
2023/03/08 08:50:22;;;;;;;;;1.00;1.00;;;;;12.80;74.06;98443.91;5055511;28;46528;-75
2023/03/08 08:52:47;;;;;;;;;0.75;0.75;;;;;12.83;74.30;98441.78;5054844;28;45421;-76
2023/03/08 08:55:12;;;;;;;;;1.75;0.00;;;;;12.87;74.14;98436.97;5054977;28;45939;-77
2023/03/08 08:57:38;;;;;;;;;0.00;0.00;;;;;12.87;74.37;98434.34;5055167;28;46714;-75
2023/03/08 09:00:08;;;;;;;;;1.00;0.00;;;;;12.94;74.23;98443.16;5055021;28;45742;-76
2023/03/08 09:02:34;;;;;;;;;1.00;0.00;;;;;12.98;74.22;98450.53;5054826;28;45663;-76
2023/03/08 09:04:59;;;;;;;;;0.50;0.50;;;;;12.94;74.55;98433.47;5054984;28;45531;-75
2023/03/08 09:10:47;;;;;;;;;0.00;0.00;;;;;13.07;74.00;98439.91;5055060;28;45656;-75
2023/03/08 09:13:12;;;;;;;;;0.00;0.00;;;;;13.14;74.03;98438.25;5035616;28;46084;-75
2023/03/08 09:15:37;;;;;;;;;1.00;1.00;;;;;13.17;73.83;98422.91;5054796;28;45829;-74
2023/03/08 09:18:03;;;;;;;;;3.00;1.00;;;;;13.23;73.62;98435.34;5054542;28;47095;-75
2023/03/08 09:20:29;;;;;;;;;1.00;0.00;;;;;13.25;73.55;98422.84;5054631;28;46282;-74
2023/03/08 09:26:16;;;;;;;;;1.00;0.00;;;;;13.38;73.41;98438.84;5054637;28;45678;-74
2023/03/08 09:28:42;;;;;;;;;1.75;1.00;;;;;13.48;73.37;98450.91;5054485;28;46593;-75
2023/03/08 09:31:11;;;;;;;;;2.50;0.75;;;;;13.53;73.29;98451.19;5054667;28;45932;-75
2023/03/08 09:33:41;;;;;;;;;0.00;0.00;;;;;13.55;72.99;98444.72;5054389;28;45748;-76
2023/03/08 09:36:07;;;;;;;;;1.00;0.25;;;;;13.62;72.81;98453.53;5054433;28;45731;-76
2023/03/08 09:38:32;;;;;;;;;1.00;1.00;;;;;13.68;73.20;98455.44;5054013;28;47359;-77
2023/03/08 09:41:49;;;;;;;;;1.00;1.00;;;;;13.72;72.97;98456.72;5054060;28;46164;-77
2023/03/08 09:44:43;;;;;;;;;0.75;0.00;;;;;13.82;73.03;98461.69;5050034;28;45753;-75
2023/03/08 09:47:33;;;;;;;;;1.00;1.00;;;;;13.90;72.41;98466.06;5054171;28;45866;-75
2023/03/08 09:50:10;;;;;;;;;1.00;0.00;;;;;13.93;72.04;98466.50;5054122;28;46709;-75
2023/03/08 09:52:52;;;;;;;;;1.50;0.50;;;;;13.99;72.30;98467.59;5053500;28;46096;-75
2023/03/08 09:55:30;;;;;;;;;0.25;0.25;;;;;14.05;72.28;98453.69;5054260;28;45576;-75
2023/03/08 09:58:03;;;;;;;;;0.50;0.50;;;;;14.08;71.84;98463.88;5054254;28;46106;-74
2023/03/08 10:00:34;;;;;;;;;1.00;1.00;;;;;14.16;71.40;98474.28;5054269;28;45708;-76
2023/03/08 10:03:25;;;;;;;;;2.00;1.00;;;;;14.18;71.44;98462.59;5053499;28;47243;-76
2023/03/08 10:05:56;;;;;;;;;0.75;0.50;;;;;14.31;71.25;98472.44;5053629;28;45756;-74
2023/03/08 10:08:30;;;;;;;;;0.50;0.25;;;;;14.38;70.71;98475.19;5054374;28;45773;-76
2023/03/08 10:11:17;;;;;;;;;2.25;0.50;;;;;14.45;71.13;98490.06;5053601;28;45610;-74
2023/03/08 10:13:48;;;;;;;;;1.00;1.00;;;;;14.49;70.97;98491.31;5053260;28;47389;-75
2023/03/08 10:16:27;;;;;;;;;0.00;0.00;;;;;14.58;70.74;98498.09;5053313;28;45685;-73
2023/03/08 10:19:14;;;;;;;;;1.25;0.00;;;;;14.63;70.41;98497.53;5053482;28;45580;-75
2023/03/08 10:25:27;;;;;;;;;0.50;0.50;;;;;14.83;70.07;98488.03;5053590;28;45644;-73
2023/03/08 10:27:54;;;;;;;;;0.25;0.25;;;;;14.90;69.78;98490.75;5053596;28;45670;-74
2023/03/08 10:30:23;;;;;;;;;0.00;0.00;;;;;14.88;69.78;98480.38;5053546;28;45494;-74
2023/03/08 10:32:52;;;;;;;;;0.00;0.00;;;;;14.97;69.42;98502.97;5052936;28;47514;-75
2023/03/08 10:35:35;;;;;;;;;0.25;0.25;;;;;15.00;69.16;98492.06;5035362;28;46755;-75
2023/03/08 10:41:24;;;;;;;;;1.00;0.00;;;;;15.07;69.06;98500.81;5054179;28;45725;-75
2023/03/08 10:43:53;;;;;;;;;2.00;1.00;;;;;15.12;69.05;98506.34;5053499;28;46862;-75
2023/03/08 10:46:23;;;;;;;;;0.75;0.00;;;;;15.13;68.98;98510.63;5053466;28;45804;-75
2023/03/08 10:48:49;;;;;;;;;0.75;0.00;;;;;15.12;68.81;98498.44;5053305;28;45760;-74
2023/03/08 10:51:25;;;;;;;;;1.00;0.75;;;;;15.15;68.64;98514.91;5053723;28;45641;-76
2023/03/08 10:57:18;;;;;;;;;2.00;0.00;;;;;15.07;68.96;98511.38;5052872;28;46067;-75
2023/03/08 10:59:49;;;;;;;;;0.00;0.00;;;;;15.10;68.95;98516.28;5053343;28;45531;-74
2023/03/08 11:02:14;;;;;;;;;0.00;0.00;;;;;15.13;68.83;98518.53;5053074;28;45681;-74
2023/03/08 11:04:54;;;;;;;;;1.00;0.00;;;;;15.18;68.77;98515.31;5054468;28;45637;-75
2023/03/08 11:07:26;;;;;;;;;0.75;0.75;;;;;15.20;68.59;98509.88;5056374;28;46227;-73
2023/03/08 11:10:08;;;;;;;;;1.00;0.50;;;;;15.24;68.60;98517.22;5056694;28;45643;-75
2023/03/08 11:12:33;;;;;;;;;0.00;0.00;;;;;15.23;68.49;98515.56;5056861;28;45714;-74
2023/03/08 11:14:58;;;;;;;;;0.00;0.00;;;;;15.29;68.59;98514.00;5072125;28;47227;-76
2023/03/08 11:17:36;;;;;;;;;0.00;0.00;;;;;15.38;68.42;98512.88;5056411;28;46033;-76
2023/03/08 11:20:09;;;;;;;;;0.75;0.75;;;;;15.47;68.34;98522.28;5056144;28;45662;-76
2023/03/08 11:22:54;;;;;;;;;1.50;0.50;;;;;15.56;68.09;98515.06;5056294;28;45817;-75
2023/03/08 11:25:43;;;;;;;;;0.00;0.00;;;;;15.64;67.90;98505.19;5056345;28;46655;-73
2023/03/08 11:28:24;;;;;;;;;1.75;1.75;;;;;15.72;67.55;98518.22;5055983;28;45975;-75
2023/03/08 11:31:25;;;;;;;;;0.00;0.00;;;;;15.74;67.43;98505.66;5056419;28;45684;-74
2023/03/08 11:33:58;;;;;;;;;0.50;0.00;;;;;15.78;67.33;98511.34;5021554;28;45665;-74
2023/03/08 11:36:34;;;;;;;;;0.00;0.00;;;;;15.84;67.74;98529.88;5055780;28;46462;-75
2023/03/08 11:39:18;;;;;;;;;1.75;1.00;;;;;15.92;67.63;98524.44;5055772;28;45642;-75
2023/03/08 11:41:59;;;;;;;;;0.75;0.75;;;;;16.01;67.42;98529.56;5055763;28;45771;-73
2023/03/08 11:44:26;;;;;;;;;1.00;0.00;;;;;16.05;67.08;98533.44;5055715;28;45594;-74
2023/03/08 11:47:15;;;;;;;;;0.00;0.00;;;;;16.11;66.95;98532.66;5055864;28;47867;-74
2023/03/08 11:50:04;;;;;;;;;0.00;0.00;;;;;16.13;66.87;98523.56;5056181;28;46571;-75
2023/03/08 11:56:10;;;;;;;;;0.00;0.00;;;;;16.13;66.63;98525.38;5055873;28;45532;-76
2023/03/08 11:58:55;;;;;;;;;1.00;0.00;;;;;16.10;66.98;98544.25;5055609;28;45612;-74
2023/03/08 12:01:28;;;;;;;;;0.00;0.00;;;;;16.05;67.69;98514.97;5055583;28;47393;-73
2023/03/08 12:03:59;;;;;;;;;0.00;0.00;;;;;15.93;67.95;98506.75;5055495;28;45550;-74
2023/03/08 12:06:30;;;;;;;;;1.00;0.00;;;;;15.90;68.28;98510.63;5055915;28;45777;-73
2023/03/08 12:12:27;;;;;;;;;1.00;0.00;;;;;15.64;68.94;98522.84;5055508;28;46030;-74
2023/03/08 12:15:16;;;;;;;;;1.00;0.50;;;;;15.46;69.12;98507.44;5055288;28;45752;-74
2023/03/08 12:17:51;;;;;;;;;0.00;0.00;;;;;15.35;69.04;98489.50;5055857;28;45516;-75
2023/03/08 12:20:19;;;;;;;;;0.00;0.00;;;;;15.43;68.83;98515.75;5055739;28;45627;-75
2023/03/08 12:22:58;;;;;;;;;2.00;1.00;;;;;15.40;69.05;98498.47;5055329;28;46060;-74
2023/03/08 12:28:55;;;;;;;;;0.00;0.00;;;;;15.43;68.33;98484.91;5055729;28;45622;-74
2023/03/08 12:31:27;;;;;;;;;0.00;0.00;;;;;15.47;68.49;98480.06;5055670;28;47039;-75
2023/03/08 12:33:54;;;;;;;;;0.00;0.00;;;;;15.53;67.61;98476.69;5055713;28;46070;-76
2023/03/08 12:36:23;;;;;;;;;1.00;0.00;;;;;15.56;67.27;98478.91;5055805;28;45519;-74
2023/03/08 12:38:55;;;;;;;;;1.00;0.00;;;;;15.60;67.06;98466.94;5054947;28;45475;-74
2023/03/08 12:41:29;;;;;;;;;0.00;0.00;;;;;15.60;66.64;98461.69;5046526;28;46538;-74
2023/03/08 12:44:18;;;;;;;;;0.00;0.00;;;;;15.71;66.42;98481.47;5055031;28;45641;-74
2023/03/08 12:46:49;;;;;;;;;1.00;1.00;;;;;15.75;66.47;98472.13;5055289;28;45788;-75
2023/03/08 12:49:26;;;;;;;;;1.00;0.00;;;;;15.78;66.34;98467.28;5055059;28;45808;-74
2023/03/08 12:51:57;;;;;;;;;0.00;0.00;;;;;15.85;65.53;98470.78;5054837;28;46482;-74
2023/03/08 12:54:23;;;;;;;;;1.50;0.00;;;;;15.85;65.85;98457.56;5054357;28;45943;-74
2023/03/08 12:56:51;;;;;;;;;0.00;0.00;;;;;15.92;65.54;98465.53;5055196;28;45564;-75
2023/03/08 12:59:18;;;;;;;;;1.00;0.00;;;;;15.98;65.79;98456.03;5055185;28;45598;-73
2023/03/08 13:01:46;;;;;;;;;1.00;1.00;;;;;16.00;65.66;98475.09;5054646;28;46329;-74
2023/03/08 13:04:31;;;;;;;;;0.00;0.00;;;;;16.06;65.25;98447.91;5053324;28;48440;-74
2023/03/08 13:07:17;;;;;;;;;0.00;0.00;;;;;16.06;64.92;98448.72;5055163;28;45651;-74
2023/03/08 13:09:52;;;;;;;;;0.00;0.00;;;;;16.05;64.67;98455.03;5054931;28;45882;-75
2023/03/08 13:12:48;;;;;;;;;0.00;0.00;;;;;16.02;64.56;98446.69;5054502;28;47312;-75
2023/03/08 13:15:13;;;;;;;;;0.00;0.00;;;;;16.03;64.73;98450.97;5054245;28;46403;-75
2023/03/08 13:17:47;;;;;;;;;0.00;0.00;;;;;16.00;64.56;98446.06;5054835;28;45570;-75
2023/03/08 13:20:33;;;;;;;;;1.00;1.00;;;;;16.05;64.69;98452.38;5054859;28;45548;-74
2023/03/08 13:23:09;;;;;;;;;0.00;0.00;;;;;16.08;65.39;98444.06;5052965;28;47113;-75
2023/03/08 13:25:56;;;;;;;;;0.50;0.00;;;;;16.07;65.70;98445.09;5054825;28;45983;-75
2023/03/08 13:28:24;;;;;;;;;1.75;1.00;;;;;16.05;65.56;98451.56;5052671;28;46193;-75
2023/03/08 13:30:53;;;;;;;;;0.50;0.00;;;;;16.04;65.81;98447.28;5054427;28;45786;-74
2023/03/08 13:33:32;;;;;;;;;0.00;0.00;;;;;16.00;65.68;98449.50;5054368;28;46880;-75